West Middletown, Ohio
Current Conditions -  °F | °C
As of 8:35 AM on Monday 24 Nov 2014 (Local Time) from KMWO Reporting Station
Broken Clouds Broken Clouds  
Wind Chill: 62°   Ceiling: 8000
Heat Index: 62°   Visibility: 10mi
Dew Point: 50°   Wind: 28mph
Humidity: 64%   Direction: 200°SSW
Pressure: 29.28"   Gusts: 44mph
Location:  39.5538°N, 84.4567°W
Report Text: KMWO 241335Z AUTO 20024G38KT 10SM SCT036 SCT048 BKN080 17/10 A2928 RMK AO2 T01680099
Loading
Personal Weather Stations






























Interactive Weather Map New forecast layout! Learn more

10-Day Weather Forecast

Advertisements
Track Severe Weather on mobile